Time;durP1;ratioP1;P1;durP2;ratioP2;P2;SDS_P1;SDS_P2;PMS_P1;PMS_P2;Temp;Humidity;BMP_temperature;BMP_pressure;BME280_temperature;BME280_humidity;BME280_pressure;Samples;Min_cycle;Max_cycle;Signal;HPM_P1;HPM_P2
2022/03/01 00:00:38;;;;;;;11.30;4.97;;;;;;;0.21;100.00;97735.22;4969582;28;20046;-73
2022/03/01 00:03:03;;;;;;;13.40;5.90;;;;;;;0.21;100.00;97724.69;4967815;28;20070;-74
2022/03/01 00:05:29;;;;;;;11.13;5.20;;;;;;;0.15;100.00;97735.81;4954421;28;20678;-74
2022/03/01 00:07:54;;;;;;;11.18;6.15;;;;;;;0.10;100.00;97732.00;4969995;28;20047;-75
2022/03/01 00:10:20;;;;;;;11.00;5.75;;;;;;;0.07;100.00;97729.66;4969122;28;20031;-74
2022/03/01 00:12:45;;;;;;;12.40;6.30;;;;;;;0.05;100.00;97729.81;4938667;28;20039;-74
2022/03/01 00:15:11;;;;;;;14.20;5.50;;;;;;;0.10;100.00;97732.84;4968976;28;20066;-74
2022/03/01 00:17:37;;;;;;;11.77;5.03;;;;;;;0.12;100.00;97735.31;4968015;28;20034;-74
2022/03/01 00:20:04;;;;;;;15.25;6.82;;;;;;;0.15;100.00;97741.09;4951495;28;20687;-74
2022/03/01 00:22:29;;;;;;;14.57;5.00;;;;;;;0.10;100.00;97740.75;4969777;28;20055;-74
2022/03/01 00:24:55;;;;;;;12.70;5.07;;;;;;;0.07;100.00;97740.19;4967754;28;20664;-74
2022/03/01 00:27:20;;;;;;;14.90;5.85;;;;;;;0.03;100.00;97731.78;4938501;29;20118;-74
2022/03/01 00:29:46;;;;;;;12.50;6.05;;;;;;;0.04;100.00;97729.97;4968208;28;20118;-74
2022/03/01 00:32:11;;;;;;;11.65;6.63;;;;;;;0.07;100.00;97734.94;4935096;28;20072;-73
2022/03/01 00:34:37;;;;;;;8.73;4.55;;;;;;;0.04;100.00;97730.81;4940120;28;20069;-74
2022/03/01 00:37:03;;;;;;;7.57;3.97;;;;;;;-0.05;100.00;97729.91;4953814;28;20066;-74
2022/03/01 00:39:28;;;;;;;7.10;3.22;;;;;;;-0.09;100.00;97727.72;4952919;28;20034;-74
2022/03/01 00:42:06;;;;;;;6.38;3.62;;;;;;;-0.11;100.00;97724.41;3040615;28;10002249;-74
2022/03/01 00:44:32;;;;;;;9.40;4.70;;;;;;;-0.19;100.00;97719.91;2559780;28;10001816;-74
2022/03/01 00:46:57;;;;;;;10.85;4.63;;;;;;;-0.21;100.00;97726.31;4936439;28;20795;-74
2022/03/01 00:49:23;;;;;;;9.55;3.80;;;;;;;-0.20;100.00;97730.59;4937187;29;20507;-74
2022/03/01 00:51:49;;;;;;;11.18;4.88;;;;;;;-0.24;100.00;97721.31;4952632;28;20035;-74
2022/03/01 00:54:14;;;;;;;15.10;6.40;;;;;;;-0.24;100.00;97726.59;4936876;29;20760;-74
2022/03/01 00:56:40;;;;;;;10.00;5.00;;;;;;;-0.31;100.00;97735.09;4937912;28;20035;-74
2022/03/01 00:59:05;;;;;;;13.07;5.72;;;;;;;-0.36;100.00;97742.59;4967037;28;20111;-73
2022/03/01 01:01:31;;;;;;;13.90;6.03;;;;;;;-0.43;100.00;97749.44;4936939;28;20118;-73
2022/03/01 01:03:56;;;;;;;14.20;6.60;;;;;;;-0.47;100.00;97737.53;4935083;28;20040;-73
2022/03/01 01:06:22;;;;;;;13.48;5.88;;;;;;;-0.50;100.00;97740.47;4937497;29;20031;-74
2022/03/01 01:08:47;;;;;;;12.98;5.25;;;;;;;-0.50;100.00;97742.28;4968577;28;20647;-73
2022/03/01 01:11:13;;;;;;;12.93;6.32;;;;;;;-0.57;100.00;97742.84;4936789;28;20066;-74
2022/03/01 01:13:39;;;;;;;12.27;5.60;;;;;;;-0.58;100.00;97743.00;4951047;28;20098;-74
2022/03/01 01:16:04;;;;;;;13.35;5.18;;;;;;;-0.64;100.00;97740.97;4936078;28;20046;-73
2022/03/01 01:18:30;;;;;;;8.63;4.88;;;;;;;-0.71;100.00;97734.63;4935774;28;20082;-73
2022/03/01 01:20:55;;;;;;;13.88;6.47;;;;;;;-0.75;100.00;97733.28;4936665;28;20074;-73
2022/03/01 01:23:21;;;;;;;12.60;6.10;;;;;;;-0.74;100.00;97729.69;4936511;28;20043;-73
2022/03/01 01:25:47;;;;;;;10.05;4.47;;;;;;;-0.75;100.00;97735.91;4967439;28;20039;-73
2022/03/01 01:28:13;;;;;;;11.60;5.70;;;;;;;-0.80;100.00;97733.72;4971419;28;20050;-73
2022/03/01 01:30:39;;;;;;;13.32;6.38;;;;;;;-0.81;100.00;97733.88;4971754;28;20518;-74
2022/03/01 01:33:05;;;;;;;17.42;6.82;;;;;;;-0.83;100.00;97736.66;4932793;28;20043;-73
2022/03/01 01:35:33;;;;;;;12.43;6.22;;;;;;;-0.85;100.00;97726.28;4942779;28;20038;-74
2022/03/01 01:37:59;;;;;;;11.85;4.35;;;;;;;-0.85;100.00;97715.78;4972122;28;20031;-74
2022/03/01 01:40:27;;;;;;;10.50;5.72;;;;;;;-0.86;100.00;97708.88;4940536;28;20053;-74
2022/03/01 01:42:53;;;;;;;11.68;5.80;;;;;;;-0.88;100.00;97709.97;4940606;28;20035;-74
2022/03/01 01:45:21;;;;;;;12.60;5.75;;;;;;;-0.94;100.00;97713.16;4940672;28;20368;-74
2022/03/01 01:47:48;;;;;;;14.48;5.82;;;;;;;-0.95;100.00;97711.53;4942034;28;20035;-74
2022/03/01 01:50:14;;;;;;;16.30;6.78;;;;;;;-0.97;100.00;97709.03;4939286;28;20031;-73
2022/03/01 01:52:39;;;;;;;16.20;6.63;;;;;;;-0.96;100.00;97713.31;4942312;28;20534;-74
2022/03/01 01:55:06;;;;;;;14.48;6.10;;;;;;;-0.98;100.00;97717.91;4970653;28;20031;-74
2022/03/01 01:57:31;;;;;;;13.75;6.38;;;;;;;-1.02;100.00;97719.16;4940822;28;20045;-74
2022/03/01 01:59:57;;;;;;;15.38;6.32;;;;;;;-1.02;100.00;97726.22;4938651;28;20032;-74
2022/03/01 02:02:24;;;;;;;14.32;5.22;;;;;;;-1.06;100.00;97725.69;4968808;28;20047;-74
2022/03/01 02:04:50;;;;;;;17.38;6.32;;;;;;;-1.04;100.00;97721.09;4941228;28;20043;-74
2022/03/01 02:07:17;;;;;;;16.13;5.88;;;;;;;-1.10;100.00;97729.56;4932849;29;20039;-73
2022/03/01 02:09:42;;;;;;;13.15;6.72;;;;;;;-1.15;100.00;97719.50;4940235;28;20073;-75
2022/03/01 02:12:11;;;;;;;13.63;5.75;;;;;;;-1.21;100.00;97722.69;4954771;28;20393;-75
2022/03/01 02:14:38;;;;;;;16.52;6.75;;;;;;;-1.17;100.00;97720.59;4971302;28;20050;-74
2022/03/01 02:17:06;;;;;;;13.85;6.05;;;;;;;-1.20;100.00;97721.72;4938760;28;20066;-74
2022/03/01 02:19:32;;;;;;;18.48;7.38;;;;;;;-1.25;100.00;97728.38;4953742;28;20608;-74
2022/03/01 02:21:58;;;;;;;10.25;4.28;;;;;;;-1.30;100.00;97725.38;4971031;28;20187;-73
2022/03/01 02:24:28;;;;;;;18.25;6.78;;;;;;;-1.27;100.00;97718.00;4970657;28;20046;-74
2022/03/01 02:26:55;;;;;;;14.82;6.45;;;;;;;-1.32;100.00;97724.66;4969827;28;20047;-74
2022/03/01 02:29:22;;;;;;;14.13;6.55;;;;;;;-1.36;100.00;97718.06;4954725;28;20027;-76
2022/03/01 02:31:47;;;;;;;16.27;6.70;;;;;;;-1.35;100.00;97720.53;4939976;28;20043;-74
2022/03/01 02:34:13;;;;;;;13.23;6.00;;;;;;;-1.37;100.00;97711.97;4938342;28;20704;-75
2022/03/01 02:36:39;;;;;;;8.30;3.60;;;;;;;-1.38;100.00;97710.31;4940474;28;20347;-74
2022/03/01 02:39:05;;;;;;;12.65;5.57;;;;;;;-1.37;100.00;97695.41;4968891;28;20149;-75
2022/03/01 02:41:30;;;;;;;15.82;6.07;;;;;;;-1.39;100.00;97692.91;4940761;29;20110;-74
2022/03/01 02:43:56;;;;;;;8.02;4.18;;;;;;;-1.42;100.00;97699.25;4970503;28;20352;-74
2022/03/01 02:46:21;;;;;;;15.70;6.63;;;;;;;-1.42;100.00;97693.19;4988002;28;20035;-75
2022/03/01 02:48:47;;;;;;;15.90;6.20;;;;;;;-1.47;100.00;97693.63;4938503;28;20039;-74
2022/03/01 02:51:12;;;;;;;17.08;5.60;;;;;;;-1.47;100.00;97698.06;4939307;28;20098;-74
2022/03/01 02:53:38;;;;;;;17.23;5.95;;;;;;;-1.49;100.00;97706.06;4970026;28;20107;-75
2022/03/01 02:56:04;;;;;;;15.40;6.20;;;;;;;-1.54;100.00;97705.66;4969752;28;20118;-75
2022/03/01 02:58:29;;;;;;;16.27;6.95;;;;;;;-1.58;100.00;97699.03;4955652;28;20039;-74
2022/03/01 03:00:55;;;;;;;12.48;4.70;;;;;;;-1.61;100.00;97712.47;4970212;28;20043;-74
2022/03/01 03:03:21;;;;;;;17.17;7.38;;;;;;;-1.64;100.00;97712.72;4937238;29;20408;-74
2022/03/01 03:05:46;;;;;;;16.88;6.35;;;;;;;-1.70;100.00;97711.50;4955457;28;20586;-74
2022/03/01 03:08:12;;;;;;;16.02;7.13;;;;;;;-1.67;100.00;97715.63;4970026;28;20120;-74
2022/03/01 03:10:38;;;;;;;11.60;3.53;;;;;;;-1.69;100.00;97718.41;4941358;28;20073;-74
2022/03/01 03:13:04;;;;;;;11.70;5.40;;;;;;;-1.69;100.00;97725.47;4969224;28;20082;-75
2022/03/01 03:15:31;;;;;;;18.65;6.78;;;;;;;-1.73;100.00;97716.19;4953190;28;20036;-74
2022/03/01 03:17:57;;;;;;;14.60;6.57;;;;;;;-1.75;100.00;97720.75;4938608;28;20086;-74
2022/03/01 03:20:23;;;;;;;15.02;5.90;;;;;;;-1.84;100.00;97711.13;4939195;28;20042;-74
2022/03/01 03:22:48;;;;;;;13.50;6.32;;;;;;;-1.87;100.00;97706.13;4971125;28;20059;-74
2022/03/01 03:25:21;;;;;;;15.32;5.95;;;;;;;-1.89;100.00;97701.03;4969630;28;20074;-74
2022/03/01 03:27:46;;;;;;;12.63;6.20;;;;;;;-1.93;100.00;97707.53;4939340;29;20031;-74
2022/03/01 03:30:12;;;;;;;11.73;5.07;;;;;;;-1.91;100.00;97702.97;4938371;28;20263;-72
2022/03/01 03:32:38;;;;;;;15.50;6.45;;;;;;;-1.90;100.00;97714.28;4936807;28;20044;-72
2022/03/01 03:35:05;;;;;;;15.48;7.05;;;;;;;-1.93;100.00;97719.84;4969578;28;20039;-72
2022/03/01 03:37:30;;;;;;;17.48;8.18;;;;;;;-1.99;100.00;97731.69;4937734;28;20499;-72
2022/03/01 03:39:56;;;;;;;19.58;8.02;;;;;;;-2.02;100.00;97730.19;4968573;28;20050;-72
2022/03/01 03:42:22;;;;;;;15.88;6.32;;;;;;;-2.05;100.00;97730.44;4938930;28;20161;-73
2022/03/01 03:44:48;;;;;;;20.85;7.65;;;;;;;-2.02;100.00;97727.56;4939145;28;20770;-73
2022/03/01 03:47:14;;;;;;;16.52;6.38;;;;;;;-2.07;100.00;97744.69;4968850;28;20094;-73
2022/03/01 03:49:39;;;;;;;13.20;5.78;;;;;;;-2.11;100.00;97744.13;4952645;28;20062;-73
2022/03/01 03:52:06;;;;;;;16.15;5.95;;;;;;;-2.09;100.00;97730.88;4971942;28;20032;-73
2022/03/01 03:54:32;;;;;;;12.07;5.38;;;;;;;-2.15;100.00;97741.91;4938827;28;20050;-73
2022/03/01 03:56:58;;;;;;;11.48;5.32;;;;;;;-2.21;100.00;97737.22;4938360;28;20107;-73
2022/03/01 03:59:24;;;;;;;12.80;5.57;;;;;;;-2.21;100.00;97740.66;4952986;28;20045;-74
2022/03/01 04:01:49;;;;;;;12.90;6.45;;;;;;;-2.24;100.00;97746.19;4938126;28;20901;-74
2022/03/01 04:04:17;;;;;;;16.75;5.38;;;;;;;-2.23;100.00;97747.03;4969555;28;20062;-74
2022/03/01 04:06:43;;;;;;;19.88;6.72;;;;;;;-2.27;100.00;97751.69;4938214;28;20031;-73
2022/03/01 04:09:09;;;;;;;15.80;6.13;;;;;;;-2.35;100.00;97746.31;4937557;28;20093;-73
2022/03/01 04:11:35;;;;;;;14.18;6.28;;;;;;;-2.34;100.00;97737.47;4969999;28;20049;-73
2022/03/01 04:14:01;;;;;;;17.27;7.15;;;;;;;-2.35;100.00;97735.81;4951466;28;20060;-73
2022/03/01 04:16:30;;;;;;;19.05;5.80;;;;;;;-2.38;100.00;97731.69;4970123;28;20026;-73
2022/03/01 04:18:55;;;;;;;19.25;7.55;;;;;;;-2.40;100.00;97735.41;4967967;28;20042;-72
2022/03/01 04:21:21;;;;;;;17.73;6.75;;;;;;;-2.43;100.00;97739.13;4958063;28;20672;-73
2022/03/01 04:23:47;;;;;;;17.40;5.47;;;;;;;-2.44;100.00;97747.13;4969175;28;20051;-73
2022/03/01 04:26:12;;;;;;;21.50;8.38;;;;;;;-2.47;100.00;97736.94;4952340;28;20043;-73
2022/03/01 04:28:38;;;;;;;13.68;5.75;;;;;;;-2.54;100.00;97734.84;4940128;28;20126;-73
2022/03/01 04:31:04;;;;;;;11.05;4.53;;;;;;;-2.54;100.00;97734.00;4968779;28;20075;-73
2022/03/01 04:33:29;;;;;;;14.63;7.43;;;;;;;-2.56;100.00;97733.34;4935826;28;20155;-72
2022/03/01 04:35:58;;;;;;;13.32;6.22;;;;;;;-2.59;100.00;97730.97;4937531;28;20122;-72
2022/03/01 04:38:25;;;;;;;16.63;6.53;;;;;;;-2.64;100.00;97725.31;4969219;28;20035;-72
2022/03/01 04:40:52;;;;;;;20.15;7.55;;;;;;;-2.64;100.00;97728.75;4970004;28;20027;-73
2022/03/01 04:43:18;;;;;;;20.02;7.43;;;;;;;-2.63;100.00;97729.59;4938928;28;20066;-73
2022/03/01 04:45:45;;;;;;;16.17;6.03;;;;;;;-2.68;100.00;97727.34;4951324;28;20038;-73
2022/03/01 04:48:10;;;;;;;19.48;7.00;;;;;;;-2.75;100.00;97718.38;4966555;28;20041;-74
2022/03/01 04:50:36;;;;;;;13.70;6.43;;;;;;;-2.70;100.00;97715.38;4937270;28;20031;-73
2022/03/01 04:53:01;;;;;;;17.40;6.15;;;;;;;-2.73;100.00;97720.84;4937059;28;20043;-73
2022/03/01 04:55:27;;;;;;;20.60;7.05;;;;;;;-2.72;100.00;97720.75;4967949;28;20042;-72
2022/03/01 04:57:52;;;;;;;13.27;6.53;;;;;;;-2.69;100.00;97723.09;4949889;28;20019;-73
2022/03/01 05:00:18;;;;;;;14.57;6.50;;;;;;;-2.71;100.00;97722.41;4967225;28;20034;-72
2022/03/01 05:02:45;;;;;;;16.38;6.53;;;;;;;-2.75;100.00;97715.75;4968609;28;20415;-73
2022/03/01 05:05:12;;;;;;;16.23;7.57;;;;;;;-2.76;100.00;97713.28;4969022;28;20042;-73
2022/03/01 05:07:39;;;;;;;16.85;6.88;;;;;;;-2.77;100.00;97709.00;4946144;28;20079;-72
2022/03/01 05:10:07;;;;;;;20.08;7.38;;;;;;;-2.76;100.00;97708.88;4968735;28;20045;-73
2022/03/01 05:12:32;;;;;;;15.93;6.75;;;;;;;-2.78;100.00;97707.34;4938286;28;20062;-73
2022/03/01 05:14:58;;;;;;;20.42;8.00;;;;;;;-2.80;100.00;97699.63;4936929;28;20043;-73
2022/03/01 05:17:23;;;;;;;18.85;7.95;;;;;;;-2.81;100.00;97704.00;4936669;28;20023;-73
2022/03/01 05:19:49;;;;;;;13.43;6.07;;;;;;;-2.85;100.00;97707.88;4936540;28;20126;-73
2022/03/01 05:22:14;;;;;;;20.58;8.45;;;;;;;-2.88;100.00;97707.31;4935684;28;20075;-73
2022/03/01 05:24:39;;;;;;;19.02;7.93;;;;;;;-2.89;100.00;97714.34;4937728;28;20039;-73
2022/03/01 05:27:05;;;;;;;19.80;8.13;;;;;;;-2.87;100.00;97719.47;4952731;28;20039;-73
2022/03/01 05:29:31;;;;;;;17.35;6.53;;;;;;;-2.95;100.00;97719.31;4969023;28;20031;-73
2022/03/01 05:31:58;;;;;;;14.48;5.82;;;;;;;-3.00;100.00;97713.63;4933749;28;20947;-73
2022/03/01 05:34:23;;;;;;;19.52;7.00;;;;;;;-3.04;100.00;97720.06;4950555;28;20031;-73
2022/03/01 05:36:48;;;;;;;16.88;7.57;;;;;;;-3.05;100.00;97713.19;4951884;28;20031;-73
2022/03/01 05:39:14;;;;;;;18.23;7.68;;;;;;;-3.03;100.00;97716.53;4966912;28;20039;-72
2022/03/01 05:41:39;;;;;;;23.20;8.55;;;;;;;-3.06;100.00;97719.41;4951925;28;20102;-72
2022/03/01 05:44:05;;;;;;;24.35;7.82;;;;;;;-3.04;100.00;97717.47;4936401;28;20062;-74
2022/03/01 05:46:31;;;;;;;21.80;7.95;;;;;;;-3.04;100.00;97725.31;4953303;28;20031;-73
2022/03/01 05:48:56;;;;;;;17.77;7.82;;;;;;;-3.06;100.00;97725.47;4935199;28;20031;-73
2022/03/01 05:51:22;;;;;;;15.63;6.38;;;;;;;-3.10;100.00;97732.75;4937077;28;20106;-74
2022/03/01 05:53:49;;;;;;;15.32;6.38;;;;;;;-3.09;100.00;97720.50;4952297;28;20031;-73
2022/03/01 05:56:15;;;;;;;27.23;7.28;;;;;;;-3.07;100.00;97721.19;4938465;28;20439;-74
2022/03/01 05:58:40;;;;;;;21.73;8.20;;;;;;;-3.11;100.00;97719.81;4984311;28;20082;-74
2022/03/01 06:01:06;;;;;;;15.85;7.05;;;;;;;-3.07;100.00;97723.81;4937066;28;20089;-73
2022/03/01 06:03:32;;;;;;;18.33;8.30;;;;;;;-3.06;100.00;97735.09;4935663;28;20086;-73
2022/03/01 06:05:57;;;;;;;16.42;7.40;;;;;;;-3.06;100.00;97716.78;4937186;28;20039;-73
2022/03/01 06:08:23;;;;;;;13.02;6.45;;;;;;;-3.02;100.00;97715.56;4937119;28;20547;-73
2022/03/01 06:10:49;;;;;;;22.45;8.02;;;;;;;-3.02;100.00;97710.31;4952997;28;20070;-73
2022/03/01 06:13:14;;;;;;;14.57;5.75;;;;;;;-3.01;100.00;97720.66;4970655;28;20038;-74
2022/03/01 06:15:40;;;;;;;22.65;8.00;;;;;;;-2.98;100.00;97722.19;4971420;28;20046;-74
2022/03/01 06:18:05;;;;;;;16.80;7.03;;;;;;;-2.96;100.00;97728.09;4954970;28;20816;-74
2022/03/01 06:20:31;;;;;;;18.20;7.50;;;;;;;-3.01;100.00;97720.66;4938219;28;20035;-74
2022/03/01 06:22:56;;;;;;;22.80;8.63;;;;;;;-2.93;100.00;97735.72;4932668;28;20055;-74
2022/03/01 06:25:22;;;;;;;23.85;7.78;;;;;;;-2.92;100.00;97734.75;4940789;28;20384;-74
2022/03/01 06:27:51;;;;;;;19.08;8.15;;;;;;;-2.95;100.00;97743.72;4954756;28;20039;-77
2022/03/01 06:30:17;;;;;;;17.77;7.85;;;;;;;-2.91;100.00;97749.50;4939099;28;20077;-76
2022/03/01 06:32:42;;;;;;;20.45;8.40;;;;;;;-2.89;100.00;97758.88;4938733;28;20110;-75
2022/03/01 06:35:08;;;;;;;22.88;8.77;;;;;;;-2.87;100.00;97767.44;4970917;28;20050;-75
2022/03/01 06:37:34;;;;;;;17.20;6.88;;;;;;;-2.85;100.00;97765.53;4955624;28;20511;-76
2022/03/01 06:39:59;;;;;;;21.45;7.85;;;;;;;-2.81;100.00;97768.69;4938465;29;20043;-75
2022/03/01 06:42:27;;;;;;;16.77;6.88;;;;;;;-2.84;100.00;97755.88;4941304;29;20541;-76
2022/03/01 06:44:52;;;;;;;20.15;7.70;;;;;;;-2.93;100.00;97761.91;4952997;28;20726;-76
2022/03/01 06:47:18;;;;;;;13.93;6.05;;;;;;;-2.93;100.00;97767.16;4939383;28;20039;-77
2022/03/01 06:49:44;;;;;;;17.92;7.45;;;;;;;-2.89;100.00;97755.44;4987245;28;20920;-76
2022/03/01 06:52:09;;;;;;;10.88;5.82;;;;;;;-2.91;100.00;97755.56;4954478;28;20035;-77
2022/03/01 06:54:35;;;;;;;19.38;6.53;;;;;;;-2.89;100.00;97737.91;4938933;28;20086;-76
2022/03/01 06:57:00;;;;;;;17.83;7.05;;;;;;;-2.78;100.00;97736.16;4953615;28;21093;-77
2022/03/01 06:59:26;;;;;;;19.02;8.35;;;;;;;-2.72;100.00;97739.09;4971298;28;20031;-77
2022/03/01 07:01:52;;;;;;;20.60;7.93;;;;;;;-2.65;100.00;97731.50;4953757;28;20043;-79
2022/03/01 07:04:18;;;;;;;21.75;8.18;;;;;;;-2.60;100.00;97735.38;4972169;28;20038;-78
2022/03/01 07:06:43;;;;;;;21.50;6.18;;;;;;;-2.59;100.00;97728.34;4941210;28;20455;-77
2022/03/01 07:09:09;;;;;;;17.00;7.07;;;;;;;-2.49;100.00;97733.59;4971178;28;20050;-77
2022/03/01 07:11:36;;;;;;;22.15;8.60;;;;;;;-2.40;100.00;97740.66;4941794;28;20031;-75
2022/03/01 07:14:01;;;;;;;19.00;7.47;;;;;;;-2.34;100.00;97737.47;4969986;28;20908;-75
2022/03/01 07:16:26;;;;;;;23.30;7.68;;;;;;;-2.30;100.00;97747.56;4953995;28;20039;-76
2022/03/01 07:18:54;;;;;;;22.80;8.25;;;;;;;-2.24;100.00;97738.34;4935409;28;20050;-75
2022/03/01 07:21:21;;;;;;;15.50;6.03;;;;;;;-2.27;100.00;97731.56;4971042;28;20675;-77
2022/03/01 07:23:47;;;;;;;18.77;7.10;;;;;;;-2.18;100.00;97734.31;4940995;28;20035;-78
2022/03/01 07:26:13;;;;;;;15.80;7.15;;;;;;;-2.14;100.00;97747.03;4953814;28;20425;-77
2022/03/01 07:28:38;;;;;;;17.08;7.15;;;;;;;-2.05;100.00;97748.00;4971748;28;20077;-78
2022/03/01 07:31:04;;;;;;;18.25;6.55;;;;;;;-2.01;100.00;97755.47;4939904;28;20117;-78
2022/03/01 07:33:29;;;;;;;13.77;5.90;;;;;;;-1.93;100.00;97753.94;4970064;28;20038;-77
2022/03/01 07:35:55;;;;;;;12.30;5.03;;;;;;;-1.87;100.00;97761.22;4970691;28;20031;-78
2022/03/01 07:38:20;;;;;;;11.52;4.50;;;;;;;-1.82;100.00;97748.53;4939068;28;20039;-77
2022/03/01 07:40:46;;;;;;;9.98;5.10;;;;;;;-1.76;100.00;97753.22;4971128;28;20725;-78
2022/03/01 07:43:11;;;;;;;10.70;5.28;;;;;;;-1.63;100.00;97743.28;4954104;28;20047;-78
2022/03/01 07:45:37;;;;;;;16.15;6.20;;;;;;;-1.52;100.00;97742.28;4970438;28;20086;-77
2022/03/01 07:48:03;;;;;;;14.68;5.63;;;;;;;-1.39;100.00;97739.34;4969151;28;20031;-77
2022/03/01 07:50:31;;;;;;;14.52;6.32;;;;;;;-1.22;100.00;97726.31;4954138;28;20028;-78
2022/03/01 07:52:57;;;;;;;16.73;7.60;;;;;;;-1.12;100.00;97732.34;4969112;28;20118;-77
2022/03/01 07:55:23;;;;;;;21.52;7.63;;;;;;;-0.96;100.00;97720.38;4953879;28;20407;-75
2022/03/01 07:57:49;;;;;;;10.82;5.10;;;;;;;-1.00;100.00;97733.00;4942195;28;20031;-77
2022/03/01 08:00:15;;;;;;;15.32;6.10;;;;;;;-0.93;100.00;97735.88;4953792;28;20004;-77
2022/03/01 08:02:42;;;;;;;14.90;6.15;;;;;;;-0.83;100.00;97731.38;4954908;28;20071;-77
2022/03/01 08:05:11;;;;;;;11.15;5.80;;;;;;;-0.77;100.00;97746.59;4953264;28;20039;-74
2022/03/01 08:07:36;;;;;;;13.13;5.75;;;;;;;-0.63;100.00;97734.72;4971755;28;20041;-74
2022/03/01 08:10:03;;;;;;;12.98;6.22;;;;;;;-0.60;100.00;97740.53;4938652;28;20043;-76
2022/03/01 08:12:29;;;;;;;19.77;7.88;;;;;;;-0.39;100.00;97740.28;4970614;28;20035;-74
2022/03/01 08:14:55;;;;;;;12.95;5.88;;;;;;;-0.27;100.00;97730.34;4968999;28;20042;-74
2022/03/01 08:17:21;;;;;;;11.40;5.43;;;;;;;-0.23;100.00;97729.09;4939326;29;20057;-74
2022/03/01 08:19:47;;;;;;;17.15;7.22;;;;;;;-0.15;100.00;97746.75;4939506;28;20045;-73
2022/03/01 08:22:13;;;;;;;8.18;4.85;;;;;;;-0.16;100.00;97752.97;4938710;28;20047;-73
2022/03/01 08:24:41;;;;;;;8.30;4.13;;;;;;;-0.05;100.00;97750.13;4937581;28;20039;-74
2022/03/01 08:27:07;;;;;;;9.20;4.85;;;;;;;0.03;100.00;97738.84;4938964;28;20102;-74
2022/03/01 08:29:33;;;;;;;16.35;6.53;;;;;;;0.15;100.00;97748.16;4971214;28;20043;-74
2022/03/01 08:31:59;;;;;;;16.52;7.18;;;;;;;0.33;100.00;97732.38;4968433;28;20950;-75
2022/03/01 08:34:25;;;;;;;13.70;5.97;;;;;;;0.48;100.00;97731.66;4939338;28;20173;-74
2022/03/01 08:36:50;;;;;;;13.85;5.70;;;;;;;0.57;100.00;97735.16;4970753;28;20038;-73
2022/03/01 08:39:16;;;;;;;18.35;7.82;;;;;;;0.68;100.00;97723.53;4938091;28;20391;-73
2022/03/01 08:41:41;;;;;;;8.95;3.83;;;;;;;0.60;100.00;97726.13;4968234;28;20534;-74
2022/03/01 08:44:07;;;;;;;15.23;6.85;;;;;;;0.48;100.00;97729.03;4946617;28;20039;-73
2022/03/01 08:46:33;;;;;;;21.80;7.65;;;;;;;0.51;100.00;97714.72;4969921;28;20118;-74
2022/03/01 08:48:58;;;;;;;18.55;6.68;;;;;;;0.64;100.00;97738.00;4936770;29;20050;-74
2022/03/01 08:51:25;;;;;;;14.43;6.72;;;;;;;0.72;100.00;97736.25;4953850;28;20035;-74
2022/03/01 08:53:53;;;;;;;16.13;7.32;;;;;;;1.04;100.00;97729.50;4968905;28;20047;-74
2022/03/01 08:56:19;;;;;;;14.43;5.90;;;;;;;1.22;97.72;97732.88;4968335;28;20034;-74
2022/03/01 08:58:45;;;;;;;10.48;4.80;;;;;;;1.05;97.13;97729.34;4967446;28;20375;-73
2022/03/01 09:01:12;;;;;;;13.35;6.00;;;;;;;1.19;97.42;97727.09;4965976;28;20997;-74
2022/03/01 09:03:38;;;;;;;18.20;7.13;;;;;;;1.10;98.26;97734.16;4965805;28;20035;-74
2022/03/01 09:06:05;;;;;;;15.93;6.05;;;;;;;1.23;97.78;97731.06;4936077;28;20031;-74
2022/03/01 09:08:43;;;;;;;16.77;7.57;;;;;;;1.66;97.09;97737.97;4966297;28;20070;-73
2022/03/01 09:11:09;;;;;;;14.15;6.60;;;;;;;1.49;96.36;97733.66;4968007;28;20039;-80
2022/03/01 09:13:35;;;;;;;14.77;6.22;;;;;;;1.52;97.59;97731.50;4968795;28;20138;-71
2022/03/01 09:16:00;;;;;;;12.65;5.75;;;;;;;1.71;94.82;97725.09;4951305;28;20419;-71
2022/03/01 09:18:26;;;;;;;17.25;6.07;;;;;;;1.67;94.15;97737.00;4953360;28;20550;-73
2022/03/01 09:20:52;;;;;;;13.30;5.45;;;;;;;1.61;93.29;97732.34;4934314;28;20560;-72
2022/03/01 09:23:18;;;;;;;12.85;5.63;;;;;;;1.79;97.03;97727.78;4937720;28;20046;-72
2022/03/01 09:25:43;;;;;;;10.82;4.82;;;;;;;1.72;94.45;97724.16;4969155;28;20034;-73
2022/03/01 09:28:09;;;;;;;13.35;5.88;;;;;;;1.24;94.03;97715.06;4969827;28;20070;-72
2022/03/01 09:30:35;;;;;;;9.77;4.53;;;;;;;1.27;97.59;97714.78;4954022;28;24827;-72
2022/03/01 09:33:02;;;;;;;17.60;7.35;;;;;;;1.44;97.38;97720.09;4936867;28;20054;-72
2022/03/01 09:35:28;;;;;;;11.00;5.82;;;;;;;1.33;96.95;97721.22;4969510;28;20053;-70
2022/03/01 09:37:54;;;;;;;15.95;6.03;;;;;;;1.46;97.80;97724.22;4967427;28;20027;-72
2022/03/01 09:40:19;;;;;;;13.35;6.20;;;;;;;1.62;96.84;97718.16;4967496;28;20148;-73
2022/03/01 09:42:45;;;;;;;12.98;6.55;;;;;;;1.92;93.07;97720.19;4938165;28;20094;-73
2022/03/01 09:45:12;;;;;;;15.98;8.05;;;;;;;1.80;94.48;97721.53;4938305;28;20813;-73
2022/03/01 09:47:38;;;;;;;16.05;6.50;;;;;;;2.03;94.96;97715.59;4965398;28;20038;-72
2022/03/01 09:50:06;;;;;;;17.27;6.95;;;;;;;2.40;93.99;97709.81;4939937;28;20052;-74
2022/03/01 09:52:32;;;;;;;7.93;4.10;;;;;;;2.88;92.72;97711.56;4974095;28;20039;-77
2022/03/01 09:54:59;;;;;;;18.42;5.50;;;;;;;2.57;91.18;97719.38;4937575;28;20078;-76
2022/03/01 09:57:24;;;;;;;11.55;5.68;;;;;;;2.67;92.43;97725.31;4957369;28;20804;-73
2022/03/01 09:59:50;;;;;;;14.20;6.68;;;;;;;2.82;86.15;97716.69;4936873;28;20070;-74
2022/03/01 10:02:16;;;;;;;11.23;4.78;;;;;;;2.51;84.56;97723.50;4941014;28;20080;-74
2022/03/01 10:04:57;;;;;;;12.30;5.72;;;;;;;2.46;85.18;97727.63;4942365;28;20038;-74
2022/03/01 10:07:27;;;;;;;17.35;6.50;;;;;;;2.83;83.68;97723.63;4955188;28;20691;-74
2022/03/01 10:09:53;;;;;;;15.77;7.07;;;;;;;2.84;84.15;97720.00;4971881;28;20908;-75
2022/03/01 10:12:26;;;;;;;10.30;5.22;;;;;;;3.13;78.87;97725.53;4941219;29;20107;-77
2022/03/01 10:14:59;;;;;;;10.40;5.10;;;;;;;3.74;73.26;97733.69;4972245;28;20047;-76
2022/03/01 10:17:34;;;;;;;15.02;6.97;;;;;;;5.51;66.48;97731.38;4973401;28;20051;-72
2022/03/01 10:20:11;;;;;;;16.25;7.13;;;;;;;7.37;53.92;97720.56;4942654;28;20047;-80
2022/03/01 10:22:44;;;;;;;10.38;5.00;;;;;;;7.97;48.32;97717.13;4942661;28;20051;-73
2022/03/01 10:25:11;;;;;;;13.02;5.28;;;;;;;9.34;45.18;97719.19;4940360;28;20082;-75
2022/03/01 10:27:36;;;;;;;16.48;7.50;;;;;;;10.14;42.44;97719.66;4972806;28;20034;-75
2022/03/01 10:30:04;;;;;;;14.30;6.50;;;;;;;9.06;43.67;97726.66;4955416;28;20926;-72
2022/03/01 10:32:30;;;;;;;9.27;5.07;;;;;;;9.64;40.22;97730.19;4936978;28;20035;-73
2022/03/01 10:35:08;;;;;;;11.35;5.55;;;;;;;10.56;39.76;97720.84;4954226;28;20106;-75
2022/03/01 10:37:37;;;;;;;17.58;7.05;;;;;;;11.55;37.90;97710.22;4953872;28;20367;-74
2022/03/01 10:40:23;;;;;;;16.45;6.88;;;;;;;10.58;38.75;97715.25;4940746;29;20867;-74
2022/03/01 10:42:59;;;;;;;11.27;5.30;;;;;;;6.76;45.47;97718.56;4955758;28;20027;-75
2022/03/01 10:45:46;;;;;;;15.20;6.93;;;;;;;6.07;55.94;97711.22;4940442;29;20587;-75
2022/03/01 10:48:24;;;;;;;14.07;7.10;;;;;;;6.89;53.16;97708.00;4937866;28;20035;-73
2022/03/01 10:51:10;;;;;;;16.05;8.30;;;;;;;9.78;44.70;97715.72;4940451;28;20083;-74
2022/03/01 10:53:43;;;;;;;12.43;5.75;;;;;;;9.07;43.27;97713.09;4972150;28;20071;-74
2022/03/01 10:56:13;;;;;;;11.18;5.15;;;;;;;8.66;45.42;97716.00;4971888;28;20062;-74
2022/03/01 10:58:42;;;;;;;13.15;6.38;;;;;;;8.42;43.66;97728.09;4969679;28;20035;-74
2022/03/01 11:01:09;;;;;;;17.27;7.95;;;;;;;8.84;44.17;97724.19;4969174;28;20051;-75
2022/03/01 11:03:35;;;;;;;14.32;7.07;;;;;;;8.78;42.14;97721.53;4954391;28;20043;-78
2022/03/01 11:06:01;;;;;;;16.02;7.70;;;;;;;7.77;43.89;97726.88;4957338;28;20203;-78
2022/03/01 11:08:36;;;;;;;14.65;7.53;;;;;;;7.42;45.65;97723.47;4941324;28;20035;-79
2022/03/01 11:11:05;;;;;;;13.18;5.88;;;;;;;7.36;46.22;97717.09;4943786;28;20835;-78
2022/03/01 11:13:34;;;;;;;11.82;5.88;;;;;;;7.16;45.92;97706.34;4939745;28;20023;-78
2022/03/01 11:16:18;;;;;;;12.77;6.07;;;;;;;6.70;47.98;97700.72;4940916;28;20050;-78
2022/03/01 11:18:53;;;;;;;12.38;6.15;;;;;;;7.18;46.89;97700.81;4940219;28;20785;-78